Time;durP1;ratioP1;P1;durP2;ratioP2;P2;SDS_P1;SDS_P2;PMS_P1;PMS_P2;Temp;Humidity;BMP_temperature;BMP_pressure;BME280_temperature;BME280_humidity;BME280_pressure;Samples;Min_cycle;Max_cycle;Signal;HPM_P1;HPM_P2
2022/03/18 00:01:52;;;;;;;24.38;12.25;;;;;;;7.67;70.34;103681.34;4968762;28;20066;-77
2022/03/18 00:04:18;;;;;;;28.58;14.38;;;;;;;7.67;70.16;103678.69;4967052;28;20401;-78
2022/03/18 00:06:43;;;;;;;27.38;13.05;;;;;;;7.66;70.55;103680.50;4966187;28;20502;-77
2022/03/18 00:09:09;;;;;;;30.55;13.82;;;;;;;7.67;70.31;103694.69;4962265;28;20477;-77
2022/03/18 00:11:34;;;;;;;25.98;13.45;;;;;;;7.67;70.16;103692.03;4966399;28;20042;-77
2022/03/18 00:14:02;;;;;;;26.50;12.77;;;;;;;7.66;70.69;103698.34;4963757;28;20509;-77
2022/03/18 00:16:28;;;;;;;27.05;12.60;;;;;;;7.66;70.47;103698.34;4963894;28;20026;-78
2022/03/18 00:18:55;;;;;;;26.60;12.75;;;;;;;7.66;70.58;103698.34;4962166;28;20037;-77
2022/03/18 00:21:21;;;;;;;27.75;12.63;;;;;;;7.66;70.52;103698.34;4960370;28;20034;-78
2022/03/18 00:23:47;;;;;;;27.80;12.57;;;;;;;7.65;70.68;103704.69;4963228;28;20117;-78
2022/03/18 00:26:13;;;;;;;24.38;12.73;;;;;;;7.65;70.43;103702.03;4966731;28;20118;-78
2022/03/18 00:28:39;;;;;;;21.48;11.80;;;;;;;7.65;70.50;103710.03;4964947;28;20053;-77
2022/03/18 00:31:08;;;;;;;25.30;12.10;;;;;;;7.66;70.59;103709.03;4964400;28;20057;-77
2022/03/18 00:33:34;;;;;;;24.65;13.10;;;;;;;7.64;70.97;103708.34;4958758;28;20354;-77
2022/03/18 00:36:00;;;;;;;23.95;12.90;;;;;;;7.63;70.97;103712.03;4961259;28;20035;-77
2022/03/18 00:38:26;;;;;;;25.98;13.15;;;;;;;7.62;71.06;103713.84;4959767;28;20124;-77
2022/03/18 00:40:54;;;;;;;29.02;12.50;;;;;;;7.61;71.36;103714.84;4963189;28;20019;-77
2022/03/18 00:43:19;;;;;;;26.48;12.65;;;;;;;7.62;71.00;103718.34;4961599;28;20045;-77
2022/03/18 00:45:45;;;;;;;25.02;11.25;;;;;;;7.62;71.33;103713.00;4957852;28;20034;-77
2022/03/18 00:53:38;;;;;;;22.17;10.70;;;;;;;7.60;71.13;103723.00;4962452;28;20408;-78
2022/03/18 00:56:04;;;;;;;19.77;10.73;;;;;;;7.58;71.48;103721.34;4961866;28;20031;-78
2022/03/18 00:58:30;;;;;;;20.35;10.05;;;;;;;7.57;71.38;103725.00;4958318;28;20500;-77
2022/03/18 01:00:55;;;;;;;19.85;10.57;;;;;;;7.58;71.56;103726.66;4966018;28;20038;-79
2022/03/18 01:03:21;;;;;;;21.77;10.43;;;;;;;7.56;71.46;103728.66;4963741;28;20034;-77
2022/03/18 01:05:47;;;;;;;21.17;10.80;;;;;;;7.55;71.38;103729.66;4962235;28;20497;-77
2022/03/18 01:08:12;;;;;;;21.83;10.05;;;;;;;7.57;71.74;103727.66;4963977;28;20063;-77
2022/03/18 01:10:38;;;;;;;18.70;10.23;;;;;;;7.57;71.50;103733.00;4961548;28;20031;-77
2022/03/18 01:13:04;;;;;;;18.42;10.30;;;;;;;7.57;71.30;103741.00;4966794;28;20057;-78
2022/03/18 01:15:29;;;;;;;26.52;10.25;;;;;;;7.57;72.03;103741.00;4964874;28;20021;-77
2022/03/18 01:17:55;;;;;;;23.08;10.00;;;;;;;7.57;71.49;103751.69;4966559;28;20031;-79
2022/03/18 01:20:21;;;;;;;20.15;8.73;;;;;;;7.57;71.65;103750.84;4962446;28;20496;-77
2022/03/18 01:22:46;;;;;;;20.50;8.90;;;;;;;7.58;71.65;103757.84;4959586;28;20038;-77
2022/03/18 01:25:12;;;;;;;18.60;8.85;;;;;;;7.59;71.62;103759.53;4960698;28;20042;-78
2022/03/18 01:27:38;;;;;;;20.23;9.75;;;;;;;7.58;71.66;103756.03;4964423;28;20037;-77
2022/03/18 01:30:03;;;;;;;17.10;7.97;;;;;;;7.60;71.71;103757.69;4963636;28;20050;-77
2022/03/18 01:32:32;;;;;;;24.20;9.27;;;;;;;7.58;71.48;103758.69;4962869;28;20034;-77
2022/03/18 01:34:57;;;;;;;17.85;9.15;;;;;;;7.57;71.61;103766.84;4963570;28;20039;-77
2022/03/18 01:37:23;;;;;;;19.23;8.98;;;;;;;7.59;71.51;103770.19;4961051;28;20485;-77
2022/03/18 01:39:49;;;;;;;18.23;8.23;;;;;;;7.59;71.74;103772.88;4964078;28;20027;-77
2022/03/18 01:42:14;;;;;;;17.17;7.75;;;;;;;7.59;71.79;103770.19;4963592;28;20471;-77
2022/03/18 01:44:44;;;;;;;18.73;8.30;;;;;;;7.57;71.78;103770.34;4962965;28;20034;-77
2022/03/18 01:47:11;;;;;;;15.82;7.75;;;;;;;7.59;71.22;103770.19;4964085;28;20110;-78
2022/03/18 01:49:37;;;;;;;17.00;7.60;;;;;;;7.58;71.34;103780.03;4965253;28;20037;-77
2022/03/18 01:52:05;;;;;;;17.88;7.47;;;;;;;7.59;71.66;103778.22;4964779;28;20043;-77
2022/03/18 01:54:49;;;;;;;18.00;7.95;;;;;;;7.58;71.52;103782.72;4965500;28;20037;-78
2022/03/18 01:57:18;;;;;;;18.08;7.13;;;;;;;7.59;71.39;103786.22;4963576;28;20302;-77
2022/03/18 01:59:43;;;;;;;19.15;7.50;;;;;;;7.58;71.34;103780.03;4965570;28;20030;-77
2022/03/18 02:02:09;;;;;;;13.88;6.75;;;;;;;7.59;71.45;103775.53;4960657;28;20027;-78
2022/03/18 02:04:35;;;;;;;17.33;6.40;;;;;;;7.58;71.48;103779.19;4961125;28;20397;-77
2022/03/18 02:07:03;;;;;;;16.05;6.88;;;;;;;7.58;71.65;103780.03;4958367;28;20043;-77
2022/03/18 02:09:30;;;;;;;15.38;6.68;;;;;;;7.58;71.31;103790.72;4967302;28;20069;-77
2022/03/18 02:11:55;;;;;;;15.35;6.75;;;;;;;7.58;71.55;103796.03;4967008;28;20274;-78
2022/03/18 02:14:31;;;;;;;18.45;6.65;;;;;;;7.54;71.76;103792.00;4966865;28;20049;-77
2022/03/18 02:16:57;;;;;;;16.88;6.47;;;;;;;7.57;71.45;103799.72;4969595;28;20058;-78
2022/03/18 02:19:22;;;;;;;20.83;7.57;;;;;;;7.57;71.76;103804.22;4969030;28;20217;-78
2022/03/18 02:21:52;;;;;;;16.15;6.40;;;;;;;7.57;71.81;103809.53;4966173;28;20029;-77
2022/03/18 02:24:19;;;;;;;12.48;6.15;;;;;;;7.58;71.46;103808.56;4969159;28;20030;-78
2022/03/18 02:26:52;;;;;;;13.85;6.32;;;;;;;7.57;71.54;103815.72;4960983;28;20027;-77
2022/03/18 02:29:19;;;;;;;17.33;6.35;;;;;;;7.57;71.38;103815.72;4967403;28;20505;-77
2022/03/18 02:31:46;;;;;;;14.38;6.75;;;;;;;7.57;71.69;103823.72;4967548;28;20108;-78
2022/03/18 02:34:11;;;;;;;13.80;5.50;;;;;;;7.57;71.25;103815.72;4967030;28;20026;-77
2022/03/18 02:36:37;;;;;;;13.68;6.60;;;;;;;7.57;71.41;103826.41;4966391;28;20037;-77
2022/03/18 02:39:03;;;;;;;18.13;6.90;;;;;;;7.56;71.63;103829.22;4967870;28;20236;-78
2022/03/18 02:41:29;;;;;;;12.57;6.28;;;;;;;7.56;71.55;103835.38;4966163;28;20245;-78
2022/03/18 02:43:54;;;;;;;13.68;6.68;;;;;;;7.55;71.90;103839.06;4968835;28;20031;-77
2022/03/18 02:46:21;;;;;;;12.73;5.75;;;;;;;7.56;71.70;103838.06;4964884;28;20038;-77
2022/03/18 02:48:47;;;;;;;12.55;6.75;;;;;;;7.56;71.67;103834.56;4958443;28;20524;-77
2022/03/18 02:51:13;;;;;;;13.65;6.00;;;;;;;7.55;71.50;103839.06;4962710;28;20031;-77
2022/03/18 02:53:39;;;;;;;15.10;6.32;;;;;;;7.55;71.39;103839.06;4966358;28;20097;-80
2022/03/18 02:56:07;;;;;;;11.82;6.55;;;;;;;7.54;71.50;103845.38;4963653;28;20102;-78
2022/03/18 02:58:35;;;;;;;15.05;6.30;;;;;;;7.54;71.75;103837.38;4967213;28;20035;-77
2022/03/18 03:01:01;;;;;;;16.23;6.60;;;;;;;7.54;71.93;103852.50;4961161;28;20030;-77
2022/03/18 03:03:27;;;;;;;16.40;6.40;;;;;;;7.53;71.72;103845.50;4964848;28;20111;-78
2022/03/18 03:08:37;;;;;;;21.10;6.35;;;;;;;7.51;71.50;103856.34;4963097;28;20098;-79
2022/03/18 03:11:03;;;;;;;12.15;6.05;;;;;;;7.51;71.79;103864.34;4962204;28;20030;-77
2022/03/18 03:13:29;;;;;;;14.95;6.00;;;;;;;7.51;71.82;103858.16;4964976;28;20022;-78
2022/03/18 03:15:55;;;;;;;22.65;10.85;;;;;;;7.51;71.53;103861.66;4965252;28;20057;-78
2022/03/18 03:18:20;;;;;;;30.10;16.02;;;;;;;7.52;71.78;103868.69;4963429;28;20054;-77
2022/03/18 03:20:46;;;;;;;32.30;17.67;;;;;;;7.51;71.32;103869.69;4963764;28;20019;-77
2022/03/18 03:23:11;;;;;;;37.30;16.17;;;;;;;7.51;71.54;103869.69;4964245;28;20038;-78
2022/03/18 03:25:37;;;;;;;30.75;16.63;;;;;;;7.51;71.47;103875.00;4965255;28;20018;-79
2022/03/18 03:28:03;;;;;;;27.83;13.27;;;;;;;7.50;71.42;103878.66;4964503;28;20035;-78
2022/03/18 03:30:28;;;;;;;29.13;14.85;;;;;;;7.50;71.62;103885.84;4963225;28;20019;-79
2022/03/18 03:32:54;;;;;;;27.90;13.43;;;;;;;7.48;71.23;103880.66;4963723;28;20031;-78
2022/03/18 03:35:20;;;;;;;26.83;12.85;;;;;;;7.48;71.48;103888.66;4966489;28;20031;-77
2022/03/18 03:37:45;;;;;;;21.10;10.68;;;;;;;7.46;71.37;103889.81;4964504;28;20019;-77
2022/03/18 03:40:15;;;;;;;23.23;12.20;;;;;;;7.45;71.25;103896.97;4963867;28;20026;-77
2022/03/18 03:42:45;;;;;;;28.10;14.15;;;;;;;7.43;71.23;103893.63;4966123;28;20031;-79
2022/03/18 03:45:12;;;;;;;36.08;16.25;;;;;;;7.43;71.48;103898.94;4960042;28;20050;-77
2022/03/18 03:47:39;;;;;;;31.67;15.50;;;;;;;7.44;71.09;103900.63;4963305;28;20059;-79
2022/03/18 03:50:06;;;;;;;31.30;14.35;;;;;;;7.41;71.12;103900.94;4960882;28;20506;-77
2022/03/18 03:52:34;;;;;;;21.90;11.55;;;;;;;7.40;71.14;103907.25;4962302;28;20441;-77
2022/03/18 03:55:00;;;;;;;28.02;11.13;;;;;;;7.38;71.35;103906.56;4965071;28;20176;-77
2022/03/18 03:57:26;;;;;;;16.40;7.53;;;;;;;7.36;71.34;103902.34;4967589;28;20113;-77
2022/03/18 03:59:52;;;;;;;18.75;7.65;;;;;;;7.32;71.47;103906.31;4961197;28;20117;-77
2022/03/18 04:02:20;;;;;;;14.80;6.25;;;;;;;7.29;71.48;103912.78;4963054;28;20114;-77
2022/03/18 04:04:49;;;;;;;16.77;6.15;;;;;;;7.26;71.58;103911.25;4966317;28;20038;-77
2022/03/18 04:07:14;;;;;;;13.07;6.35;;;;;;;7.22;71.67;103907.22;4969626;28;20031;-77
2022/03/18 04:09:40;;;;;;;12.25;5.13;;;;;;;7.19;71.45;103909.34;4966033;28;20027;-77
2022/03/18 04:12:06;;;;;;;14.90;5.40;;;;;;;7.17;71.51;103919.28;4965707;28;20046;-77
2022/03/18 04:14:31;;;;;;;11.80;5.10;;;;;;;7.14;71.60;103916.94;4964703;28;20109;-77
2022/03/18 04:16:57;;;;;;;15.30;5.00;;;;;;;7.11;71.26;103915.41;4968148;28;20069;-77
2022/03/18 04:19:23;;;;;;;14.40;5.32;;;;;;;7.09;71.53;103916.53;4963354;28;20414;-77
2022/03/18 04:21:49;;;;;;;11.60;4.60;;;;;;;7.08;71.70;103922.88;4965635;28;20045;-77
2022/03/18 04:24:15;;;;;;;10.70;4.45;;;;;;;7.06;71.38;103925.69;4963311;28;20027;-77
2022/03/18 04:26:41;;;;;;;13.13;4.18;;;;;;;7.03;71.48;103938.47;4963662;28;20030;-78
2022/03/18 04:29:08;;;;;;;13.77;4.55;;;;;;;6.99;71.56;103943.22;4967085;28;20033;-77
2022/03/18 04:31:34;;;;;;;13.15;4.45;;;;;;;6.95;71.25;103933.84;4966732;28;20034;-77
2022/03/18 04:34:00;;;;;;;14.23;4.50;;;;;;;6.93;71.30;103942.00;4959619;28;20046;-77
2022/03/18 04:36:26;;;;;;;10.07;4.85;;;;;;;6.92;71.39;103947.47;4965200;28;20033;-77
2022/03/18 04:38:51;;;;;;;14.55;4.57;;;;;;;6.91;71.33;103956.47;4965478;28;20042;-77
2022/03/18 04:41:17;;;;;;;10.80;4.22;;;;;;;6.90;71.63;103963.63;4967881;28;20392;-77
2022/03/18 04:43:42;;;;;;;14.73;4.50;;;;;;;6.89;71.40;103969.09;4963172;28;20035;-77
2022/03/18 04:46:08;;;;;;;11.10;3.95;;;;;;;6.88;71.56;103973.59;4960932;28;20529;-78
2022/03/18 04:48:34;;;;;;;11.35;3.97;;;;;;;6.88;71.32;103976.25;4963552;28;20039;-78
2022/03/18 04:50:59;;;;;;;11.13;4.55;;;;;;;6.87;71.51;103981.75;4965836;28;20394;-77
2022/03/18 04:53:26;;;;;;;14.05;3.88;;;;;;;6.86;71.30;103983.56;4966787;28;20030;-77
2022/03/18 04:55:51;;;;;;;15.07;5.07;;;;;;;6.85;71.30;103987.22;4966628;28;20074;-77
2022/03/18 04:58:17;;;;;;;10.73;3.78;;;;;;;6.85;71.58;103995.22;4957364;28;20085;-76
2022/03/18 05:00:42;;;;;;;10.65;3.85;;;;;;;6.85;71.26;104003.22;4961836;28;20118;-77
2022/03/18 05:03:10;;;;;;;13.60;3.70;;;;;;;6.84;71.14;103990.88;4959781;28;20089;-77
2022/03/18 05:05:37;;;;;;;12.35;3.70;;;;;;;6.84;71.28;104003.34;4963346;28;20182;-77
2022/03/18 05:08:03;;;;;;;12.63;4.30;;;;;;;6.83;71.77;104004.34;4965386;28;20030;-79
2022/03/18 05:10:30;;;;;;;9.65;4.07;;;;;;;6.84;71.55;104004.19;4958588;28;20062;-78
2022/03/18 05:12:55;;;;;;;14.68;3.70;;;;;;;6.84;71.27;104009.53;4961645;28;20469;-77
2022/03/18 05:15:21;;;;;;;14.48;3.88;;;;;;;6.84;71.67;104011.34;4965607;28;20035;-78
2022/03/18 05:17:52;;;;;;;13.38;3.92;;;;;;;6.82;71.38;104016.81;4961127;28;20038;-77
2022/03/18 05:20:18;;;;;;;15.35;4.43;;;;;;;6.84;71.40;104014.00;4960243;28;20038;-77
2022/03/18 05:22:47;;;;;;;11.98;4.15;;;;;;;6.82;71.58;104019.50;4964674;28;20428;-77
2022/03/18 05:25:13;;;;;;;11.02;3.50;;;;;;;6.81;71.38;104028.44;4959770;28;20031;-77
2022/03/18 05:27:44;;;;;;;15.77;3.15;;;;;;;6.81;71.14;104030.25;4964870;28;20115;-77
2022/03/18 05:30:11;;;;;;;9.70;2.78;;;;;;;6.82;71.30;104027.50;4961531;28;20027;-77
2022/03/18 05:32:37;;;;;;;13.23;2.97;;;;;;;6.83;71.02;104037.16;4959814;28;20085;-77
2022/03/18 05:35:04;;;;;;;7.75;2.85;;;;;;;6.85;70.57;104031.69;4957761;28;20039;-77
2022/03/18 05:37:30;;;;;;;16.92;3.33;;;;;;;6.85;70.74;104039.69;4956797;28;20050;-79
2022/03/18 05:39:56;;;;;;;9.57;2.80;;;;;;;6.83;70.87;104045.16;4961987;28;20528;-77
2022/03/18 05:42:21;;;;;;;13.63;3.35;;;;;;;6.85;70.56;104051.19;4963781;28;20073;-77
2022/03/18 05:44:47;;;;;;;7.45;2.55;;;;;;;6.84;70.57;104049.50;4965181;28;20077;-78
2022/03/18 05:47:12;;;;;;;8.38;2.67;;;;;;;6.85;70.71;104050.34;4965870;28;20131;-77
2022/03/18 05:49:38;;;;;;;9.85;2.45;;;;;;;6.85;70.44;104058.34;4964903;28;20058;-77
2022/03/18 05:52:03;;;;;;;13.10;2.88;;;;;;;6.82;70.23;104063.94;4966716;28;20031;-77
2022/03/18 05:54:29;;;;;;;8.70;2.17;;;;;;;6.83;70.13;104063.81;4961169;28;20172;-77
2022/03/18 05:56:54;;;;;;;9.10;2.38;;;;;;;6.83;70.43;104071.81;4963975;28;20109;-77
2022/03/18 05:59:26;;;;;;;11.52;2.30;;;;;;;6.85;69.77;104074.34;4963136;28;20026;-77
2022/03/18 06:01:53;;;;;;;11.73;2.97;;;;;;;6.86;69.72;104079.53;4956910;28;20520;-77
2022/03/18 06:04:18;;;;;;;10.57;2.70;;;;;;;6.88;69.83;104090.88;4965139;28;20034;-77
2022/03/18 06:06:47;;;;;;;22.20;3.20;;;;;;;6.89;69.94;104097.03;4960317;28;20027;-78
2022/03/18 06:11:57;;;;;;;11.55;2.65;;;;;;;6.88;69.75;104087.38;4958562;28;20050;-77
2022/03/18 06:14:25;;;;;;;7.90;2.95;;;;;;;6.90;69.55;104093.41;4956227;28;20035;-77
2022/03/18 06:16:54;;;;;;;11.48;2.88;;;;;;;6.90;69.83;104096.91;4959294;28;20034;-76
2022/03/18 06:19:21;;;;;;;11.73;2.78;;;;;;;6.91;69.81;104101.25;4963307;28;20031;-77
2022/03/18 06:21:47;;;;;;;10.82;3.10;;;;;;;6.92;69.55;104110.09;4964424;28;20058;-76
2022/03/18 06:24:14;;;;;;;12.43;2.70;;;;;;;6.94;69.67;104121.44;4957272;28;20110;-78
2022/03/18 06:26:40;;;;;;;11.55;2.97;;;;;;;6.89;69.46;104121.88;4960502;28;20069;-77
2022/03/18 06:29:07;;;;;;;17.92;3.67;;;;;;;6.88;69.77;104128.19;4963370;28;20078;-77
2022/03/18 06:31:33;;;;;;;14.48;3.58;;;;;;;6.87;69.55;104134.50;4960073;28;20027;-77
2022/03/18 06:33:59;;;;;;;17.83;2.72;;;;;;;6.87;69.64;104142.50;4960178;28;20035;-77
2022/03/18 06:36:25;;;;;;;8.77;2.10;;;;;;;6.88;69.54;104146.00;4964307;28;20679;-76
2022/03/18 06:38:51;;;;;;;13.73;2.60;;;;;;;6.87;69.36;104147.84;4962077;28;20049;-77
2022/03/18 06:41:18;;;;;;;7.05;2.53;;;;;;;6.85;69.41;104157.81;4966957;28;20027;-77
2022/03/18 06:43:43;;;;;;;9.50;2.55;;;;;;;6.84;69.23;104152.63;4965901;28;20122;-77
2022/03/18 06:46:11;;;;;;;10.02;2.15;;;;;;;6.85;69.13;104148.97;4958278;28;20204;-76
2022/03/18 06:48:36;;;;;;;15.00;3.13;;;;;;;6.85;69.11;104157.81;4956984;28;20045;-77
2022/03/18 06:51:03;;;;;;;12.40;2.22;;;;;;;6.86;69.14;104158.66;4959212;28;20027;-76
2022/03/18 06:53:28;;;;;;;12.45;2.60;;;;;;;6.88;69.12;104159.34;4963794;28;20027;-76
2022/03/18 06:55:54;;;;;;;16.63;2.78;;;;;;;6.90;68.88;104168.88;4965856;28;20109;-77
2022/03/18 06:58:19;;;;;;;14.85;3.15;;;;;;;6.91;68.84;104170.56;4970267;28;20023;-77
2022/03/18 07:00:45;;;;;;;9.32;2.13;;;;;;;6.95;68.76;104166.63;4965470;28;20030;-76
2022/03/18 07:03:12;;;;;;;12.38;3.13;;;;;;;6.99;69.02;104169.84;4963455;28;20027;-76
2022/03/18 07:05:38;;;;;;;7.13;2.08;;;;;;;7.03;68.67;104173.09;4964784;28;20101;-76
2022/03/18 07:08:04;;;;;;;13.40;2.38;;;;;;;7.03;68.68;104179.28;4963679;28;20098;-76
2022/03/18 07:10:30;;;;;;;12.50;3.05;;;;;;;7.04;68.46;104174.78;4968739;28;20038;-77
2022/03/18 07:12:55;;;;;;;11.00;2.35;;;;;;;7.09;68.58;104183.19;4962765;28;20097;-77
2022/03/18 07:15:21;;;;;;;7.97;2.05;;;;;;;7.13;68.07;104181.91;4964489;28;20429;-77
2022/03/18 07:17:58;;;;;;;9.63;2.20;;;;;;;7.13;68.14;104179.25;4967650;28;20605;-76
2022/03/18 07:20:25;;;;;;;9.85;3.00;;;;;;;7.14;68.03;104176.44;4956890;28;20050;-77
2022/03/18 07:23:22;;;;;;;17.17;2.72;;;;;;;7.12;68.28;104180.22;4967612;28;20026;-77
2022/03/18 07:25:48;;;;;;;10.98;2.05;;;;;;;7.24;68.00;104168.44;4957547;28;20472;-77
2022/03/18 07:28:16;;;;;;;15.88;3.13;;;;;;;7.27;67.63;104169.00;4964379;28;20378;-77
2022/03/18 07:30:43;;;;;;;12.82;2.40;;;;;;;7.28;67.75;104177.84;4967098;28;20049;-76
2022/03/18 07:33:10;;;;;;;10.98;2.25;;;;;;;7.30;67.79;104178.53;4970061;28;20412;-76
2022/03/18 07:35:37;;;;;;;12.50;2.03;;;;;;;7.34;67.28;104182.59;4967769;28;20031;-77
2022/03/18 07:38:09;;;;;;;12.43;2.55;;;;;;;7.38;67.34;104192.00;4961982;28;20027;-77
2022/03/18 07:40:39;;;;;;;14.07;2.35;;;;;;;7.43;67.46;104197.75;4960262;28;20089;-77
2022/03/18 07:43:05;;;;;;;9.05;2.10;;;;;;;7.49;67.41;104199.00;4969255;28;20416;-76
2022/03/18 07:45:33;;;;;;;9.77;2.95;;;;;;;7.52;67.29;104201.38;4961170;28;20472;-77
2022/03/18 07:48:01;;;;;;;14.23;2.55;;;;;;;7.54;66.97;104210.94;4960135;28;20030;-76
2022/03/18 07:50:29;;;;;;;11.23;2.42;;;;;;;7.54;67.07;104208.28;4965620;28;20026;-77
2022/03/18 07:52:57;;;;;;;9.20;2.72;;;;;;;7.61;66.66;104221.03;4966483;28;20062;-77
2022/03/18 07:55:26;;;;;;;12.73;2.55;;;;;;;7.65;66.64;104220.59;4966294;28;20022;-77
2022/03/18 07:57:52;;;;;;;17.40;2.40;;;;;;;7.71;66.71;104225.34;4969216;28;20023;-78
2022/03/18 08:00:19;;;;;;;15.00;3.35;;;;;;;7.76;66.47;104227.59;4959121;28;20027;-77
2022/03/18 08:02:46;;;;;;;12.18;2.55;;;;;;;7.81;66.33;104236.03;4965418;28;20062;-77
2022/03/18 08:05:12;;;;;;;15.65;3.08;;;;;;;7.85;66.12;104240.06;4962646;28;20034;-77
2022/03/18 08:07:39;;;;;;;12.45;2.80;;;;;;;7.89;66.52;104246.81;4962156;28;20024;-77
2022/03/18 08:10:07;;;;;;;12.68;2.65;;;;;;;7.93;66.27;104242.88;4967494;28;20404;-77
2022/03/18 08:12:34;;;;;;;14.18;2.50;;;;;;;7.98;66.13;104243.28;4962027;28;20023;-77
2022/03/18 08:15:02;;;;;;;11.73;2.78;;;;;;;8.03;66.04;104243.66;4962054;28;20093;-77
2022/03/18 08:17:28;;;;;;;16.92;2.67;;;;;;;8.06;65.80;104251.38;4966669;28;20026;-77
2022/03/18 08:19:54;;;;;;;10.98;2.53;;;;;;;8.12;66.16;104244.63;4966162;28;20033;-77
2022/03/18 08:22:21;;;;;;;8.48;2.55;;;;;;;8.19;65.84;104253.75;4961157;28;20035;-77
2022/03/18 08:24:50;;;;;;;14.00;2.97;;;;;;;8.27;65.93;104259.22;4960488;28;20066;-78
2022/03/18 08:27:16;;;;;;;17.80;2.78;;;;;;;8.37;65.60;104259.19;4965740;28;20170;-77
2022/03/18 08:29:42;;;;;;;10.90;2.55;;;;;;;8.41;65.35;104263.22;4962827;28;20473;-77
2022/03/18 08:32:11;;;;;;;15.07;3.38;;;;;;;8.48;65.44;104267.00;4963433;28;20035;-77
2022/03/18 08:34:37;;;;;;;10.75;2.63;;;;;;;8.53;65.22;104267.41;4963573;28;20030;-78
2022/03/18 08:37:05;;;;;;;13.13;2.67;;;;;;;8.57;64.83;104274.13;4959589;28;20046;-76
2022/03/18 08:39:35;;;;;;;10.32;2.85;;;;;;;8.67;64.93;104276.75;4965332;28;20027;-77
2022/03/18 08:42:00;;;;;;;15.75;2.67;;;;;;;8.79;65.15;104280.88;4960193;28;20030;-77
2022/03/18 08:44:26;;;;;;;8.38;2.75;;;;;;;8.90;64.33;104290.53;4967978;28;20022;-77
2022/03/18 08:46:52;;;;;;;14.77;2.47;;;;;;;8.94;64.49;104298.09;4964543;28;20023;-78
2022/03/18 08:49:17;;;;;;;16.00;3.88;;;;;;;8.96;64.03;104308.66;4964064;28;20413;-77
2022/03/18 08:51:43;;;;;;;20.00;3.58;;;;;;;8.99;64.21;104311.06;4966127;28;20157;-77
2022/03/18 08:54:09;;;;;;;13.70;2.97;;;;;;;9.05;63.69;104321.13;4961978;28;20119;-77
2022/03/18 08:56:35;;;;;;;11.73;2.67;;;;;;;9.11;63.86;104322.38;4961512;28;20026;-77
2022/03/18 08:59:06;;;;;;;13.60;2.45;;;;;;;9.18;63.86;104318.09;4964305;28;20067;-77
2022/03/18 09:01:33;;;;;;;18.60;3.17;;;;;;;9.25;63.82;104322.69;4963745;28;20446;-77
2022/03/18 09:03:58;;;;;;;19.23;3.95;;;;;;;9.33;63.51;104324.59;4965128;28;20492;-77
2022/03/18 09:06:24;;;;;;;13.25;3.15;;;;;;;9.41;63.41;104329.19;4964771;28;20034;-77
2022/03/18 09:08:50;;;;;;;17.38;2.80;;;;;;;9.52;63.39;104324.47;4965131;28;20069;-77
2022/03/18 09:11:15;;;;;;;10.93;3.00;;;;;;;9.61;62.79;104326.19;4962176;28;20489;-77
2022/03/18 09:13:41;;;;;;;15.40;3.30;;;;;;;9.68;62.95;104329.09;4962791;28;20114;-77
2022/03/18 09:16:07;;;;;;;11.82;2.40;;;;;;;9.73;62.80;104332.16;4963080;28;20110;-78
2022/03/18 09:18:33;;;;;;;6.70;2.35;;;;;;;9.78;62.61;104335.22;4964791;28;20057;-77
2022/03/18 09:20:58;;;;;;;11.80;2.97;;;;;;;9.82;62.48;104331.22;4963727;28;20034;-77
2022/03/18 09:23:25;;;;;;;12.18;2.67;;;;;;;9.88;62.03;104330.63;4964626;28;20182;-78
2022/03/18 09:25:51;;;;;;;12.98;3.03;;;;;;;9.97;61.99;104332.34;4965670;28;20423;-78
2022/03/18 09:28:17;;;;;;;14.43;2.80;;;;;;;10.05;61.58;104333.38;4961467;28;20589;-77
2022/03/18 09:30:42;;;;;;;16.20;3.60;;;;;;;10.11;61.69;104330.09;4963567;28;20117;-77
2022/03/18 09:33:08;;;;;;;15.05;3.42;;;;;;;10.14;61.31;104330.63;4961971;28;20289;-77
2022/03/18 09:35:35;;;;;;;16.77;4.13;;;;;;;10.18;61.20;104336.50;4964504;28;20114;-78
2022/03/18 09:38:01;;;;;;;11.43;2.92;;;;;;;10.22;60.87;104333.34;4960993;28;20033;-77
2022/03/18 09:40:26;;;;;;;15.27;3.58;;;;;;;10.31;61.07;104331.59;4963603;28;20028;-77
2022/03/18 09:42:59;;;;;;;13.88;3.38;;;;;;;10.35;60.76;104338.31;4961212;28;20054;-77
2022/03/18 09:45:30;;;;;;;11.05;3.10;;;;;;;10.43;60.90;104341.03;4961404;28;20178;-77
2022/03/18 09:47:58;;;;;;;9.52;2.70;;;;;;;10.49;60.28;104350.28;4961217;28;20046;-78
2022/03/18 09:50:23;;;;;;;14.55;3.50;;;;;;;10.55;60.43;104353.16;4968032;28;20504;-78
2022/03/18 09:52:49;;;;;;;16.33;3.28;;;;;;;10.58;60.40;104346.63;4963587;28;20081;-78
2022/03/18 09:55:15;;;;;;;13.32;3.88;;;;;;;10.63;60.07;104354.22;4964603;28;20539;-77
2022/03/18 09:57:40;;;;;;;17.90;4.30;;;;;;;10.72;59.64;104348.72;4964156;28;20039;-78
2022/03/18 10:00:07;;;;;;;11.40;3.67;;;;;;;10.87;59.67;104351.63;4962350;28;20054;-78
2022/03/18 10:02:33;;;;;;;11.70;4.05;;;;;;;11.01;59.76;104350.16;4963019;28;20146;-78
2022/03/18 10:05:15;;;;;;;11.18;4.03;;;;;;;11.04;59.12;104349.84;4961240;28;20098;-79
2022/03/18 10:07:53;;;;;;;13.55;4.03;;;;;;;11.18;59.11;104352.72;4957992;28;20069;-79
2022/03/18 10:10:19;;;;;;;17.02;4.68;;;;;;;11.39;59.17;104352.25;4961501;28;20118;-78
2022/03/18 10:12:48;;;;;;;11.18;4.53;;;;;;;11.57;59.06;104352.09;4961927;28;20109;-78
2022/03/18 10:15:22;;;;;;;17.60;4.38;;;;;;;11.74;58.67;104353.78;4961410;28;20066;-78
2022/03/18 10:17:58;;;;;;;15.13;5.05;;;;;;;11.87;58.08;104349.81;4960778;28;20029;-79
2022/03/18 10:20:34;;;;;;;12.77;5.05;;;;;;;12.03;58.00;104347.09;4961503;28;20031;-78
2022/03/18 10:23:16;;;;;;;18.83;6.13;;;;;;;12.18;57.63;104355.28;4959804;28;20089;-79
2022/03/18 10:25:51;;;;;;;13.75;5.38;;;;;;;12.36;57.07;104353.22;4964180;28;20062;-78
2022/03/18 10:28:32;;;;;;;18.42;7.85;;;;;;;12.46;56.61;104343.13;4964147;28;20473;-78
2022/03/18 10:31:21;;;;;;;14.35;6.70;;;;;;;12.50;56.36;104352.53;4964317;28;20118;-78
2022/03/18 10:39:26;;;;;;;15.35;6.07;;;;;;;12.92;55.44;104340.56;4964702;28;20038;-78
2022/03/18 10:41:52;;;;;;;14.77;6.15;;;;;;;13.00;55.64;104341.38;4968308;28;20027;-78
2022/03/18 10:44:19;;;;;;;17.08;6.47;;;;;;;13.13;55.22;104343.50;4966510;28;20564;-78
2022/03/18 10:46:47;;;;;;;13.10;6.10;;;;;;;13.23;54.76;104336.03;4967064;28;20031;-78
2022/03/18 10:49:13;;;;;;;11.45;5.65;;;;;;;13.38;54.45;104344.19;4965100;28;20026;-79
2022/03/18 10:51:39;;;;;;;14.15;5.78;;;;;;;13.51;54.21;104349.81;4966076;28;20428;-78
2022/03/18 10:54:05;;;;;;;16.08;7.10;;;;;;;13.61;53.94;104346.88;4963590;28;20030;-79
2022/03/18 10:56:52;;;;;;;15.93;6.63;;;;;;;13.64;53.08;104348.34;4966027;28;20488;-78
2022/03/18 10:59:17;;;;;;;16.88;6.00;;;;;;;13.69;53.00;104351.38;4966308;28;20485;-78
2022/03/18 11:01:46;;;;;;;15.40;6.32;;;;;;;13.58;53.02;104348.06;4966476;28;20030;-79
2022/03/18 11:04:14;;;;;;;15.65;6.50;;;;;;;13.57;52.64;104359.88;4967942;28;20033;-79
2022/03/18 11:06:41;;;;;;;16.48;6.57;;;;;;;13.59;52.53;104354.31;4964630;28;20042;-79
2022/03/18 11:09:17;;;;;;;18.25;6.15;;;;;;;13.58;52.61;104360.72;4971864;28;20122;-78
2022/03/18 11:11:44;;;;;;;14.27;6.25;;;;;;;13.59;52.16;104347.06;4972556;28;20409;-78
2022/03/18 11:14:12;;;;;;;13.05;5.30;;;;;;;13.66;52.32;104351.75;4965522;28;20027;-79
2022/03/18 11:16:42;;;;;;;15.25;6.00;;;;;;;13.74;52.31;104352.50;4966773;28;20038;-79
2022/03/18 11:19:14;;;;;;;16.42;6.28;;;;;;;13.88;52.02;104340.09;4962718;28;20138;-79
2022/03/18 11:21:40;;;;;;;17.23;6.75;;;;;;;14.07;51.90;104349.50;4965835;28;20102;-79
2022/03/18 11:24:14;;;;;;;13.43;5.95;;;;;;;14.18;51.07;104352.59;4961607;28;20081;-79
2022/03/18 11:26:48;;;;;;;16.20;6.38;;;;;;;14.34;51.24;104350.72;4967633;28;20118;-79
2022/03/18 11:29:19;;;;;;;16.05;5.80;;;;;;;14.51;51.38;104341.44;4965207;28;20035;-79
2022/03/18 11:32:09;;;;;;;18.27;6.88;;;;;;;14.67;50.59;104346.66;4965990;28;20031;-78
2022/03/18 11:35:07;;;;;;;15.98;5.55;;;;;;;14.89;50.27;104338.59;4967326;28;20026;-82
2022/03/18 11:37:33;;;;;;;12.27;5.75;;;;;;;15.13;50.39;104340.97;4942490;28;20117;-78
2022/03/18 11:40:23;;;;;;;14.18;6.80;;;;;;;15.25;48.86;104344.00;4966044;28;20090;-77
2022/03/18 11:42:49;;;;;;;13.25;5.72;;;;;;;15.33;49.46;104342.00;4961676;28;20089;-77